createdAt,value
2022-09-28T10:18:34.840Z,7.82
2022-09-28T10:21:23.593Z,6.32
2022-09-28T10:24:03.571Z,6.90
2022-09-28T10:26:35.668Z,6.93
2022-09-28T10:29:06.255Z,4.68
2022-09-28T10:31:41.996Z,6.32
2022-09-28T10:34:26.439Z,4.28
2022-09-28T10:37:06.691Z,5.95
2022-09-28T10:39:53.559Z,5.57
2022-09-28T10:42:29.892Z,6.25
2022-09-28T10:45:20.124Z,4.65
2022-09-28T10:47:46.732Z,4.35
2022-09-28T10:50:22.628Z,5.03
2022-09-28T10:52:53.310Z,5.32
2022-09-28T10:56:03.959Z,5.28
2022-09-28T10:58:42.029Z,5.70
2022-09-28T11:01:16.305Z,4.50
2022-09-28T11:04:04.635Z,3.10
2022-09-28T11:06:39.267Z,2.90
2022-09-28T11:09:32.521Z,4.57
2022-09-28T11:12:06.868Z,4.82
2022-09-28T11:14:42.042Z,4.40
2022-09-28T11:17:26.433Z,2.22
2022-09-28T11:19:53.848Z,7.00
2022-09-28T11:22:23.438Z,3.90
2022-09-28T11:24:52.416Z,3.58
2022-09-28T11:27:22.103Z,4.28
2022-09-28T11:29:58.648Z,4.07
2022-09-28T11:32:41.822Z,3.70
2022-09-28T11:35:29.066Z,3.00
2022-09-28T11:38:36.381Z,5.22
2022-09-28T11:44:33.222Z,3.15
2022-09-28T11:47:27.204Z,4.72
2022-09-28T11:50:22.899Z,4.85
2022-09-28T11:53:18.608Z,3.50
2022-09-28T11:55:59.730Z,3.58
2022-09-28T11:58:42.643Z,3.53
2022-09-28T12:01:45.816Z,3.40
2022-09-28T12:04:36.960Z,4.18
2022-09-28T12:09:41.303Z,3.67
2022-09-28T12:14:53.325Z,3.50
2022-09-28T12:17:34.541Z,7.30
2022-09-28T12:20:16.559Z,12.30
2022-09-28T12:22:54.096Z,3.30
2022-09-28T12:25:23.204Z,4.32
2022-09-28T12:28:03.292Z,3.25
2022-09-28T12:30:35.626Z,4.30
2022-09-28T12:33:17.897Z,4.22
2022-09-28T12:36:11.972Z,4.93
2022-09-28T12:39:20.233Z,3.85
2022-09-28T12:42:18.357Z,4.22
2022-09-28T12:44:59.294Z,5.07
2022-09-28T12:47:45.904Z,4.65
2022-09-28T12:50:44.771Z,4.28
2022-09-28T12:53:28.015Z,4.20
2022-09-28T12:55:57.140Z,3.50
2022-09-28T12:59:02.388Z,5.38
2022-09-28T13:01:58.363Z,3.35
2022-09-28T13:05:02.251Z,4.97
2022-09-28T13:07:39.611Z,5.75
2022-09-28T13:10:23.568Z,4.38
2022-09-28T13:13:08.327Z,3.60
2022-09-28T13:15:45.344Z,2.47
2022-09-28T13:18:22.740Z,2.47
2022-09-28T13:21:03.764Z,3.25
2022-09-28T13:23:35.582Z,2.28
2022-09-28T13:26:14.844Z,2.90
2022-09-28T13:28:43.488Z,2.58
2022-09-28T13:31:11.220Z,3.60
2022-09-28T13:33:43.975Z,2.25
2022-09-28T13:36:25.001Z,2.72
2022-09-28T13:38:52.323Z,5.28
2022-09-28T13:41:21.993Z,2.95
2022-09-28T13:44:08.280Z,3.00
2022-09-28T13:47:04.640Z,2.58
2022-09-28T13:49:48.098Z,3.40
2022-09-28T13:52:43.114Z,4.70
2022-09-28T13:55:28.882Z,3.63
2022-09-28T14:00:30.798Z,5.38
2022-09-28T14:03:04.692Z,3.00
2022-09-28T14:05:45.408Z,5.35
2022-09-28T14:08:47.282Z,3.72
2022-09-28T14:11:42.578Z,5.07
2022-09-28T14:14:08.745Z,3.03
2022-09-28T14:16:37.376Z,2.50
2022-09-28T14:19:10.147Z,3.83
2022-09-28T14:22:06.367Z,3.35
2022-09-28T14:25:00.330Z,4.15
2022-09-28T14:27:40.375Z,4.63
2022-09-28T14:30:25.817Z,2.90
2022-09-28T14:32:59.648Z,3.60
2022-09-28T14:35:56.360Z,4.10
2022-09-28T14:38:47.376Z,3.92
2022-09-28T14:41:17.467Z,4.50
2022-09-28T14:43:43.470Z,3.50
2022-09-28T14:46:15.530Z,4.68
2022-09-28T14:48:48.257Z,3.60
2022-09-28T14:51:35.584Z,4.63
2022-09-28T14:54:07.556Z,2.95
2022-09-28T14:56:38.860Z,2.53
2022-09-28T14:59:07.087Z,3.55
2022-09-28T15:01:35.586Z,3.20
2022-09-28T15:04:04.762Z,3.25
2022-09-28T15:06:48.177Z,3.83
2022-09-28T15:09:32.479Z,6.30
2022-09-28T15:12:10.158Z,3.78
2022-09-28T15:14:46.124Z,3.50
2022-09-28T15:17:16.386Z,3.05
2022-09-28T15:20:08.860Z,4.68
2022-09-28T15:22:36.740Z,3.75
2022-09-28T15:25:13.705Z,5.68
2022-09-28T15:27:41.287Z,5.50
2022-09-28T15:30:26.630Z,3.80
2022-09-28T15:32:56.719Z,2.60
2022-09-28T15:35:26.363Z,2.60
2022-09-28T15:37:54.945Z,3.15
2022-09-28T15:40:38.735Z,3.05
2022-09-28T15:43:24.182Z,5.25
2022-09-28T15:46:04.497Z,2.83
2022-09-28T15:48:40.743Z,6.40
2022-09-28T15:51:12.808Z,2.92
2022-09-28T15:53:48.902Z,5.15
2022-09-28T15:56:15.067Z,3.20
2022-09-28T15:58:41.767Z,4.32
2022-09-28T16:01:38.293Z,3.30
2022-09-28T16:04:48.021Z,5.38
2022-09-28T16:07:21.059Z,4.47
2022-09-28T16:09:56.837Z,3.92
2022-09-28T16:12:25.330Z,3.72
2022-09-28T16:14:53.132Z,5.57
2022-09-28T16:17:32.529Z,3.85
2022-09-28T16:20:03.257Z,6.32
2022-09-28T22:18:54.972Z,14.77
2022-09-28T22:21:32.726Z,13.20
2022-09-28T22:24:01.192Z,15.25
2022-09-28T22:26:28.509Z,14.93
2022-09-28T22:28:57.204Z,16.48
2022-09-28T22:31:26.798Z,14.90
2022-09-28T22:33:53.722Z,15.25
2022-09-28T22:36:20.036Z,16.25
2022-09-28T22:38:47.394Z,17.33
2022-09-28T22:41:20.671Z,18.75
2022-09-28T22:43:47.461Z,21.05
2022-09-28T22:46:16.980Z,18.65
2022-09-28T22:48:47.497Z,17.02
2022-09-28T22:51:14.661Z,15.75
2022-09-28T22:53:40.768Z,20.35
2022-09-28T22:56:07.494Z,17.00
2022-09-28T22:58:34.659Z,18.55
2022-09-28T23:01:12.082Z,17.45
2022-09-28T23:03:40.228Z,19.83
2022-09-28T23:06:07.302Z,17.25
2022-09-28T23:08:33.395Z,16.85
2022-09-28T23:10:59.669Z,17.73
2022-09-28T23:13:25.775Z,18.40
2022-09-28T23:16:02.978Z,17.75
2022-09-28T23:18:31.861Z,17.92
2022-09-28T23:21:01.294Z,17.35
2022-09-28T23:23:28.044Z,22.58
2022-09-28T23:25:55.308Z,16.80
2022-09-28T23:28:23.207Z,19.63
2022-09-28T23:30:49.679Z,18.02
2022-09-28T23:33:17.179Z,21.40
2022-09-28T23:35:44.095Z,18.25
2022-09-28T23:38:15.492Z,18.27
2022-09-28T23:40:41.894Z,17.23
2022-09-28T23:43:08.695Z,18.08
2022-09-28T23:45:35.352Z,19.55
2022-09-28T23:48:01.796Z,16.15
2022-09-28T23:50:28.292Z,25.33
2022-09-28T23:52:54.387Z,17.77
2022-09-28T23:55:20.476Z,18.83
2022-09-28T23:57:46.690Z,19.95
